sensor_id;sensor_type;location;lat;lon;timestamp;pressure;altitude;pressure_sealevel;temperature;humidity
4586;BME280;2305;50.118;8.952;2024-02-16T00:01:41;100357.91;;;13.09;100.00
4586;BME280;2305;50.118;8.952;2024-02-16T00:04:09;100368.88;;;13.23;100.00
4586;BME280;2305;50.118;8.952;2024-02-16T00:06:37;100366.25;;;13.23;100.00
4586;BME280;2305;50.118;8.952;2024-02-16T00:09:06;100372.66;;;13.21;100.00
4586;BME280;2305;50.118;8.952;2024-02-16T00:11:37;100369.19;;;13.20;100.00
4586;BME280;2305;50.118;8.952;2024-02-16T00:14:05;100362.34;;;13.18;100.00
4586;BME280;2305;50.118;8.952;2024-02-16T00:16:35;100363.47;;;13.15;100.00
4586;BME280;2305;50.118;8.952;2024-02-16T00:19:07;100359.16;;;13.14;100.00
4586;BME280;2305;50.118;8.952;2024-02-16T00:21:35;100361.94;;;13.13;100.00
4586;BME280;2305;50.118;8.952;2024-02-16T00:24:04;100354.28;;;13.10;100.00
4586;BME280;2305;50.118;8.952;2024-02-16T00:26:33;100354.28;;;13.10;100.00
4586;BME280;2305;50.118;8.952;2024-02-16T00:29:01;100352.47;;;13.10;100.00
4586;BME280;2305;50.118;8.952;2024-02-16T00:31:29;100350.97;;;13.08;100.00
4586;BME280;2305;50.118;8.952;2024-02-16T00:33:57;100353.72;;;13.06;100.00
4586;BME280;2305;50.118;8.952;2024-02-16T00:36:28;100357.19;;;13.07;100.00
4586;BME280;2305;50.118;8.952;2024-02-16T00:38:58;100344.81;;;13.07;100.00
4586;BME280;2305;50.118;8.952;2024-02-16T00:41:27;100343.41;;;13.03;100.00
4586;BME280;2305;50.118;8.952;2024-02-16T00:43:56;100338.41;;;13.00;100.00
4586;BME280;2305;50.118;8.952;2024-02-16T00:46:24;100338.28;;;13.02;100.00
4586;BME280;2305;50.118;8.952;2024-02-16T00:48:52;100341.50;;;13.05;100.00
4586;BME280;2305;50.118;8.952;2024-02-16T00:51:21;100333.94;;;13.10;100.00
4586;BME280;2305;50.118;8.952;2024-02-16T00:53:51;100331.88;;;13.04;100.00
4586;BME280;2305;50.118;8.952;2024-02-16T00:56:20;100328.81;;;12.99;100.00
4586;BME280;2305;50.118;8.952;2024-02-16T00:58:48;100327.41;;;12.95;100.00
4586;BME280;2305;50.118;8.952;2024-02-16T01:01:16;100332.69;;;12.95;100.00
4586;BME280;2305;50.118;8.952;2024-02-16T01:03:44;100319.34;;;12.97;100.00
4586;BME280;2305;50.118;8.952;2024-02-16T01:06:12;100324.34;;;13.00;100.00
4586;BME280;2305;50.118;8.952;2024-02-16T01:08:43;100319.22;;;12.98;100.00
4586;BME280;2305;50.118;8.952;2024-02-16T01:11:15;100319.34;;;12.97;100.00
4586;BME280;2305;50.118;8.952;2024-02-16T01:13:43;100315.03;;;12.96;100.00
4586;BME280;2305;50.118;8.952;2024-02-16T01:16:11;100316.13;;;12.93;100.00
4586;BME280;2305;50.118;8.952;2024-02-16T01:18:39;100314.44;;;12.92;100.00
4586;BME280;2305;50.118;8.952;2024-02-16T01:21:09;100316.25;;;12.92;100.00
4586;BME280;2305;50.118;8.952;2024-02-16T01:23:39;100317.34;;;12.89;100.00
4586;BME280;2305;50.118;8.952;2024-02-16T01:26:07;100315.84;;;12.87;100.00
4586;BME280;2305;50.118;8.952;2024-02-16T01:28:36;100317.22;;;12.81;100.00
4586;BME280;2305;50.118;8.952;2024-02-16T01:31:05;100312.22;;;12.78;100.00
4586;BME280;2305;50.118;8.952;2024-02-16T01:33:33;100319.47;;;12.76;100.00
4586;BME280;2305;50.118;8.952;2024-02-16T01:36:06;100319.72;;;12.73;100.00
4586;BME280;2305;50.118;8.952;2024-02-16T01:38:34;100319.34;;;12.68;100.00
4586;BME280;2305;50.118;8.952;2024-02-16T01:41:02;100324.75;;;12.67;100.00
4586;BME280;2305;50.118;8.952;2024-02-16T01:43:33;100325.16;;;12.62;100.00
4586;BME280;2305;50.118;8.952;2024-02-16T01:46:03;100333.50;;;12.58;100.00
4586;BME280;2305;50.118;8.952;2024-02-16T01:48:33;100330.31;;;12.54;100.00
4586;BME280;2305;50.118;8.952;2024-02-16T01:51:01;100328.59;;;12.53;100.00
4586;BME280;2305;50.118;8.952;2024-02-16T01:53:30;100328.59;;;12.53;100.00
4586;BME280;2305;50.118;8.952;2024-02-16T01:55:59;100332.09;;;12.54;100.00
4586;BME280;2305;50.118;8.952;2024-02-16T01:58:27;100325.97;;;12.53;100.00
4586;BME280;2305;50.118;8.952;2024-02-16T02:00:56;100331.81;;;12.57;100.00
4586;BME280;2305;50.118;8.952;2024-02-16T02:03:26;100330.03;;;12.57;100.00
4586;BME280;2305;50.118;8.952;2024-02-16T02:05:54;100332.22;;;12.52;100.00
4586;BME280;2305;50.118;8.952;2024-02-16T02:08:25;100337.94;;;12.48;100.00
4586;BME280;2305;50.118;8.952;2024-02-16T02:10:54;100331.09;;;12.45;100.00
4586;BME280;2305;50.118;8.952;2024-02-16T02:13:22;100327.78;;;12.43;100.00
4586;BME280;2305;50.118;8.952;2024-02-16T02:15:50;100323.34;;;12.44;100.00
4586;BME280;2305;50.118;8.952;2024-02-16T02:18:19;100313.16;;;12.49;100.00
4586;BME280;2305;50.118;8.952;2024-02-16T02:20:50;100311.22;;;12.60;100.00
4586;BME280;2305;50.118;8.952;2024-02-16T02:23:23;100307.47;;;12.63;100.00
4586;BME280;2305;50.118;8.952;2024-02-16T02:25:52;100313.75;;;12.62;100.00
4586;BME280;2305;50.118;8.952;2024-02-16T02:28:21;100318.34;;;12.69;100.00
4586;BME280;2305;50.118;8.952;2024-02-16T02:30:51;100311.41;;;12.68;100.00
4586;BME280;2305;50.118;8.952;2024-02-16T02:33:20;100307.47;;;12.63;100.00
4586;BME280;2305;50.118;8.952;2024-02-16T02:35:49;100302.75;;;12.66;100.00
4586;BME280;2305;50.118;8.952;2024-02-16T02:38:18;100303.03;;;12.63;100.00
4586;BME280;2305;50.118;8.952;2024-02-16T02:40:47;100305.81;;;12.62;100.00
4586;BME280;2305;50.118;8.952;2024-02-16T02:43:15;100301.91;;;12.56;100.00
4586;BME280;2305;50.118;8.952;2024-02-16T02:45:45;100292.44;;;12.54;100.00
4586;BME280;2305;50.118;8.952;2024-02-16T02:48:14;100299.53;;;12.53;100.00
4586;BME280;2305;50.118;8.952;2024-02-16T02:50:43;100298.03;;;12.51;100.00
4586;BME280;2305;50.118;8.952;2024-02-16T02:53:14;100295.66;;;12.48;100.00
4586;BME280;2305;50.118;8.952;2024-02-16T02:55:52;100296.75;;;12.45;100.00
4586;BME280;2305;50.118;8.952;2024-02-16T02:58:21;100298.56;;;12.45;100.00
4586;BME280;2305;50.118;8.952;2024-02-16T03:00:49;100296.91;;;12.44;100.00
4586;BME280;2305;50.118;8.952;2024-02-16T03:03:17;100293.53;;;12.42;100.00
4586;BME280;2305;50.118;8.952;2024-02-16T03:05:49;100291.06;;;12.40;100.00
4586;BME280;2305;50.118;8.952;2024-02-16T03:08:18;100297.16;;;12.41;100.00
4586;BME280;2305;50.118;8.952;2024-02-16T03:10:48;100299.00;;;12.40;100.00
4586;BME280;2305;50.118;8.952;2024-02-16T03:13:17;100293.84;;;12.39;100.00
4586;BME280;2305;50.118;8.952;2024-02-16T03:15:48;100294.66;;;12.39;100.00
4586;BME280;2305;50.118;8.952;2024-02-16T03:18:16;100301.88;;;12.37;100.00
4586;BME280;2305;50.118;8.952;2024-02-16T03:20:44;100300.09;;;12.38;100.00
4586;BME280;2305;50.118;8.952;2024-02-16T03:23:17;100299.81;;;12.41;100.00
4586;BME280;2305;50.118;8.952;2024-02-16T03:25:45;100304.13;;;12.42;100.00
4586;BME280;2305;50.118;8.952;2024-02-16T03:28:14;100296.06;;;12.43;100.00
4586;BME280;2305;50.118;8.952;2024-02-16T03:30:44;100301.34;;;12.43;100.00
4586;BME280;2305;50.118;8.952;2024-02-16T03:33:12;100303.13;;;12.43;100.00
4586;BME280;2305;50.118;8.952;2024-02-16T03:35:41;100301.34;;;12.43;100.00
4586;BME280;2305;50.118;8.952;2024-02-16T03:38:09;100309.28;;;12.43;100.00
4586;BME280;2305;50.118;8.952;2024-02-16T03:40:37;100313.59;;;12.44;100.00
4586;BME280;2305;50.118;8.952;2024-02-16T03:43:09;100318.44;;;12.49;100.00
4586;BME280;2305;50.118;8.952;2024-02-16T03:45:38;100316.38;;;12.52;100.00
4586;BME280;2305;50.118;8.952;2024-02-16T03:48:08;100316.38;;;12.52;100.00
4586;BME280;2305;50.118;8.952;2024-02-16T03:50:38;100325.03;;;12.54;100.00
4586;BME280;2305;50.118;8.952;2024-02-16T03:53:06;100317.50;;;12.59;100.00
4586;BME280;2305;50.118;8.952;2024-02-16T03:55:34;100314.03;;;12.59;100.00
4586;BME280;2305;50.118;8.952;2024-02-16T03:58:03;100312.38;;;12.58;100.00
4586;BME280;2305;50.118;8.952;2024-02-16T04:00:31;100315.25;;;12.55;100.00
4586;BME280;2305;50.118;8.952;2024-02-16T04:03:00;100314.16;;;12.57;100.00
4586;BME280;2305;50.118;8.952;2024-02-16T04:05:30;100325.16;;;12.53;100.00
4586;BME280;2305;50.118;8.952;2024-02-16T04:08:00;100318.88;;;12.54;100.00
4586;BME280;2305;50.118;8.952;2024-02-16T04:10:32;100318.03;;;12.53;100.00
4586;BME280;2305;50.118;8.952;2024-02-16T04:13:00;100317.09;;;12.54;100.00
4586;BME280;2305;50.118;8.952;2024-02-16T04:15:29;100313.72;;;12.52;100.00
4586;BME280;2305;50.118;8.952;2024-02-16T04:17:58;100319.88;;;12.53;100.00
4586;BME280;2305;50.118;8.952;2024-02-16T04:20:32;100330.00;;;12.48;100.00
4586;BME280;2305;50.118;8.952;2024-02-16T04:23:00;100330.28;;;12.45;100.00
4586;BME280;2305;50.118;8.952;2024-02-16T04:25:28;100330.69;;;12.40;100.00
4586;BME280;2305;50.118;8.952;2024-02-16T04:27:56;100339.72;;;12.38;100.00
4586;BME280;2305;50.118;8.952;2024-02-16T04:30:24;100336.53;;;12.34;100.00
4586;BME280;2305;50.118;8.952;2024-02-16T04:32:52;100343.88;;;12.31;100.00
4586;BME280;2305;50.118;8.952;2024-02-16T04:35:20;100342.34;;;12.28;100.00
4586;BME280;2305;50.118;8.952;2024-02-16T04:37:50;100341.66;;;12.26;100.00
4586;BME280;2305;50.118;8.952;2024-02-16T04:40:18;100346.50;;;12.21;100.00
4586;BME280;2305;50.118;8.952;2024-02-16T04:42:47;100343.28;;;12.18;100.00
4586;BME280;2305;50.118;8.952;2024-02-16T04:45:15;100350.38;;;12.17;100.00
4586;BME280;2305;50.118;8.952;2024-02-16T04:47:44;100348.69;;;12.16;100.00
4586;BME280;2305;50.118;8.952;2024-02-16T04:50:12;100351.50;;;12.15;100.00
4586;BME280;2305;50.118;8.952;2024-02-16T04:52:44;100347.44;;;12.11;100.00
4586;BME280;2305;50.118;8.952;2024-02-16T04:55:13;100338.53;;;12.12;100.00
4586;BME280;2305;50.118;8.952;2024-02-16T04:57:42;100347.03;;;12.15;100.00
4586;BME280;2305;50.118;8.952;2024-02-16T05:00:11;100342.72;;;12.14;100.00
4586;BME280;2305;50.118;8.952;2024-02-16T05:02:40;100340.94;;;12.15;100.00
4586;BME280;2305;50.118;8.952;2024-02-16T05:05:08;100346.06;;;12.16;100.00
4586;BME280;2305;50.118;8.952;2024-02-16T05:07:36;100341.06;;;12.13;100.00
4586;BME280;2305;50.118;8.952;2024-02-16T05:10:08;100336.03;;;12.10;100.00
4586;BME280;2305;50.118;8.952;2024-02-16T05:12:37;100338.09;;;12.07;100.00
4586;BME280;2305;50.118;8.952;2024-02-16T05:15:06;100332.13;;;12.05;100.00
4586;BME280;2305;50.118;8.952;2024-02-16T05:17:37;100334.88;;;12.03;100.00
4586;BME280;2305;50.118;8.952;2024-02-16T05:20:10;100333.09;;;12.04;100.00
4586;BME280;2305;50.118;8.952;2024-02-16T05:22:42;100331.31;;;12.04;100.00
4586;BME280;2305;50.118;8.952;2024-02-16T05:25:12;100333.94;;;12.04;100.00
4586;BME280;2305;50.118;8.952;2024-02-16T05:27:44;100335.75;;;12.04;100.00
4586;BME280;2305;50.118;8.952;2024-02-16T05:30:15;100341.88;;;12.04;100.00
4586;BME280;2305;50.118;8.952;2024-02-16T05:32:43;100343.66;;;12.04;100.00
4586;BME280;2305;50.118;8.952;2024-02-16T05:35:13;100352.56;;;12.03;100.00
4586;BME280;2305;50.118;8.952;2024-02-16T05:37:44;100345.44;;;12.03;100.00
4586;BME280;2305;50.118;8.952;2024-02-16T05:40:15;100348.09;;;12.03;100.00
4586;BME280;2305;50.118;8.952;2024-02-16T05:42:51;100349.78;;;12.04;100.00
4586;BME280;2305;50.118;8.952;2024-02-16T05:45:19;100345.19;;;12.06;100.00
4586;BME280;2305;50.118;8.952;2024-02-16T05:47:52;100345.06;;;12.08;100.00
4586;BME280;2305;50.118;8.952;2024-02-16T05:50:20;100354.78;;;12.07;100.00
4586;BME280;2305;50.118;8.952;2024-02-16T05:52:50;100353.94;;;12.07;100.00
4586;BME280;2305;50.118;8.952;2024-02-16T05:55:18;100352.56;;;12.03;100.00
4586;BME280;2305;50.118;8.952;2024-02-16T05:57:47;100353.53;;;12.02;100.00
4586;BME280;2305;50.118;8.952;2024-02-16T06:00:16;100349.47;;;11.98;100.00
4586;BME280;2305;50.118;8.952;2024-02-16T06:02:50;100349.75;;;11.95;100.00
4586;BME280;2305;50.118;8.952;2024-02-16T06:05:19;100349.75;;;11.95;100.00
4586;BME280;2305;50.118;8.952;2024-02-16T06:07:47;100350.16;;;11.90;100.00
4586;BME280;2305;50.118;8.952;2024-02-16T06:10:16;100355.56;;;11.89;100.00
4586;BME280;2305;50.118;8.952;2024-02-16T06:12:46;100349.69;;;11.85;100.00
4586;BME280;2305;50.118;8.952;2024-02-16T06:15:15;100349.38;;;11.79;100.00
4586;BME280;2305;50.118;8.952;2024-02-16T06:17:44;100348.09;;;11.73;100.00
4586;BME280;2305;50.118;8.952;2024-02-16T06:20:12;100348.97;;;11.74;100.00
4586;BME280;2305;50.118;8.952;2024-02-16T06:22:45;100352.00;;;11.79;100.00
4586;BME280;2305;50.118;8.952;2024-02-16T06:25:15;100360.13;;;11.87;100.00
4586;BME280;2305;50.118;8.952;2024-02-16T06:27:44;100357.63;;;11.85;100.00
4586;BME280;2305;50.118;8.952;2024-02-16T06:30:13;100363.19;;;11.92;100.00
4586;BME280;2305;50.118;8.952;2024-02-16T06:32:42;100358.19;;;11.89;100.00
4586;BME280;2305;50.118;8.952;2024-02-16T06:35:11;100363.94;;;11.94;100.00
4586;BME280;2305;50.118;8.952;2024-02-16T06:37:39;100370.88;;;11.95;100.00
4586;BME280;2305;50.118;8.952;2024-02-16T06:40:08;100375.06;;;11.97;100.00
4586;BME280;2305;50.118;8.952;2024-02-16T06:42:37;100372.25;;;11.99;100.00
4586;BME280;2305;50.118;8.952;2024-02-16T06:45:07;100372.81;;;12.02;100.00
4586;BME280;2305;50.118;8.952;2024-02-16T06:47:37;100372.81;;;12.02;100.00
4586;BME280;2305;50.118;8.952;2024-02-16T06:50:08;100380.91;;;12.10;100.00
4586;BME280;2305;50.118;8.952;2024-02-16T06:52:36;100373.41;;;12.06;100.00
4586;BME280;2305;50.118;8.952;2024-02-16T06:55:05;100375.34;;;12.04;100.00
4586;BME280;2305;50.118;8.952;2024-02-16T06:57:33;100371.72;;;12.05;100.00
4586;BME280;2305;50.118;8.952;2024-02-16T07:00:01;100377.34;;;12.11;100.00
4586;BME280;2305;50.118;8.952;2024-02-16T07:02:30;100387.50;;;12.16;100.00
4586;BME280;2305;50.118;8.952;2024-02-16T07:05:00;100389.56;;;12.12;100.00
4586;BME280;2305;50.118;8.952;2024-02-16T07:07:30;100383.47;;;12.21;100.00
4586;BME280;2305;50.118;8.952;2024-02-16T07:09:59;100385.72;;;12.26;100.00
4586;BME280;2305;50.118;8.952;2024-02-16T07:12:27;100386.19;;;12.40;100.00
4586;BME280;2305;50.118;8.952;2024-02-16T07:14:55;100378.66;;;12.36;100.00
4586;BME280;2305;50.118;8.952;2024-02-16T07:17:23;100382.66;;;12.30;100.00
4586;BME280;2305;50.118;8.952;2024-02-16T07:19:51;100386.44;;;12.37;100.00
4586;BME280;2305;50.118;8.952;2024-02-16T07:22:19;100385.47;;;12.38;100.00
4586;BME280;2305;50.118;8.952;2024-02-16T07:24:49;100388.44;;;12.45;100.00
4586;BME280;2305;50.118;8.952;2024-02-16T07:27:17;100392.75;;;12.46;100.00
4586;BME280;2305;50.118;8.952;2024-02-16T07:29:45;100394.69;;;12.44;100.00
4586;BME280;2305;50.118;8.952;2024-02-16T07:32:13;100403.44;;;12.44;100.00
4586;BME280;2305;50.118;8.952;2024-02-16T07:34:46;100399.97;;;12.44;100.00
4586;BME280;2305;50.118;8.952;2024-02-16T07:37:16;100404.84;;;12.48;100.00
4586;BME280;2305;50.118;8.952;2024-02-16T07:39:48;100404.88;;;12.58;100.00
4586;BME280;2305;50.118;8.952;2024-02-16T07:42:17;100407.81;;;12.64;100.00
4586;BME280;2305;50.118;8.952;2024-02-16T07:44:45;100408.34;;;12.58;100.00
4586;BME280;2305;50.118;8.952;2024-02-16T07:47:14;100403.63;;;12.71;100.00
4586;BME280;2305;50.118;8.952;2024-02-16T07:49:50;100410.59;;;12.72;100.00
4586;BME280;2305;50.118;8.952;2024-02-16T07:52:19;100421.47;;;12.79;100.00
4586;BME280;2305;50.118;8.952;2024-02-16T07:54:49;100419.38;;;12.73;100.00
4586;BME280;2305;50.118;8.952;2024-02-16T07:57:18;100418.09;;;12.67;100.00
4586;BME280;2305;50.118;8.952;2024-02-16T07:59:47;100420.47;;;12.70;100.00
4586;BME280;2305;50.118;8.952;2024-02-16T08:02:16;100424.66;;;12.73;100.00
4586;BME280;2305;50.118;8.952;2024-02-16T08:04:47;100424.38;;;12.76;100.00
4586;BME280;2305;50.118;8.952;2024-02-16T08:07:15;100430.78;;;12.73;100.00
4586;BME280;2305;50.118;8.952;2024-02-16T08:09:46;100437.78;;;12.93;100.00
4586;BME280;2305;50.118;8.952;2024-02-16T08:12:16;100433.31;;;12.84;100.00
4586;BME280;2305;50.118;8.952;2024-02-16T08:14:45;100437.34;;;12.88;100.00
4586;BME280;2305;50.118;8.952;2024-02-16T08:17:13;100446.00;;;12.90;100.00
4586;BME280;2305;50.118;8.952;2024-02-16T08:19:52;100438.25;;;12.98;100.00
4586;BME280;2305;50.118;8.952;2024-02-16T08:22:21;100435.88;;;13.14;100.00
4586;BME280;2305;50.118;8.952;2024-02-16T08:24:50;100435.88;;;13.14;100.00
4586;BME280;2305;50.118;8.952;2024-02-16T08:27:21;100438.53;;;13.14;100.00
4586;BME280;2305;50.118;8.952;2024-02-16T08:29:51;100437.69;;;13.23;100.00
4586;BME280;2305;50.118;8.952;2024-02-16T08:32:19;100438.81;;;13.30;100.00
4586;BME280;2305;50.118;8.952;2024-02-16T08:34:48;100441.75;;;13.27;100.00
4586;BME280;2305;50.118;8.952;2024-02-16T08:37:17;100437.25;;;13.28;100.00
4586;BME280;2305;50.118;8.952;2024-02-16T08:39:45;100432.94;;;13.27;100.00
4586;BME280;2305;50.118;8.952;2024-02-16T08:42:15;100435.91;;;13.33;100.00
4586;BME280;2305;50.118;8.952;2024-02-16T08:44:45;100437.00;;;13.40;100.00
4586;BME280;2305;50.118;8.952;2024-02-16T08:47:13;100433.38;;;13.51;100.00
4586;BME280;2305;50.118;8.952;2024-02-16T08:49:42;100429.59;;;13.63;100.00
4586;BME280;2305;50.118;8.952;2024-02-16T08:52:11;100439.47;;;13.70;100.00
4586;BME280;2305;50.118;8.952;2024-02-16T08:54:39;100444.75;;;13.79;100.00
4586;BME280;2305;50.118;8.952;2024-02-16T08:57:07;100450.88;;;13.80;100.00
4586;BME280;2305;50.118;8.952;2024-02-16T08:59:37;100449.22;;;13.79;100.00
4586;BME280;2305;50.118;8.952;2024-02-16T09:02:06;100461.31;;;13.91;100.00
4586;BME280;2305;50.118;8.952;2024-02-16T09:04:37;100463.41;;;13.97;100.00
4586;BME280;2305;50.118;8.952;2024-02-16T09:07:05;100460.88;;;13.95;100.00
4586;BME280;2305;50.118;8.952;2024-02-16T09:09:33;100466.88;;;13.88;100.00
4586;BME280;2305;50.118;8.952;2024-02-16T09:12:01;100464.00;;;13.81;100.00
4586;BME280;2305;50.118;8.952;2024-02-16T09:14:29;100467.06;;;13.86;100.00
4586;BME280;2305;50.118;8.952;2024-02-16T09:16:58;100466.50;;;13.92;100.00
4586;BME280;2305;50.118;8.952;2024-02-16T09:19:28;100469.25;;;14.00;100.00
4586;BME280;2305;50.118;8.952;2024-02-16T09:21:56;100476.09;;;13.93;100.00
4586;BME280;2305;50.118;8.952;2024-02-16T09:24:25;100474.28;;;13.94;100.00
4586;BME280;2305;50.118;8.952;2024-02-16T09:26:57;100476.81;;;13.86;100.00
4586;BME280;2305;50.118;8.952;2024-02-16T09:29:28;100480.56;;;13.93;100.00
4586;BME280;2305;50.118;8.952;2024-02-16T09:32:00;100483.88;;;13.95;100.00
4586;BME280;2305;50.118;8.952;2024-02-16T09:34:30;100486.84;;;13.92;100.00
4586;BME280;2305;50.118;8.952;2024-02-16T09:36:59;100489.47;;;13.92;100.00
4586;BME280;2305;50.118;8.952;2024-02-16T09:39:29;100488.91;;;13.98;100.00
4586;BME280;2305;50.118;8.952;2024-02-16T09:41:58;100487.53;;;13.94;100.00
4586;BME280;2305;50.118;8.952;2024-02-16T09:44:28;100489.06;;;13.96;100.00
4586;BME280;2305;50.118;8.952;2024-02-16T09:46:59;100493.78;;;14.02;100.00
4586;BME280;2305;50.118;8.952;2024-02-16T09:49:30;100489.19;;;13.95;100.00
4586;BME280;2305;50.118;8.952;2024-02-16T09:52:10;100489.06;;;13.96;100.00
4586;BME280;2305;50.118;8.952;2024-02-16T09:54:39;100490.59;;;13.99;100.00
4586;BME280;2305;50.118;8.952;2024-02-16T09:57:07;100498.09;;;14.13;100.00
4586;BME280;2305;50.118;8.952;2024-02-16T09:59:36;100501.28;;;14.16;100.00
4586;BME280;2305;50.118;8.952;2024-02-16T10:02:04;100501.88;;;14.20;100.00
4586;BME280;2305;50.118;8.952;2024-02-16T10:04:37;100501.84;;;14.29;100.00
4586;BME280;2305;50.118;8.952;2024-02-16T10:07:06;100512.28;;;14.31;100.00
4586;BME280;2305;50.118;8.952;2024-02-16T10:09:41;100506.84;;;14.32;100.00
4586;BME280;2305;50.118;8.952;2024-02-16T10:12:18;100509.50;;;14.32;100.00
4586;BME280;2305;50.118;8.952;2024-02-16T10:14:53;100509.91;;;14.37;100.00
4586;BME280;2305;50.118;8.952;2024-02-16T10:17:22;100504.56;;;14.56;100.00
4586;BME280;2305;50.118;8.952;2024-02-16T10:19:57;100509.53;;;14.59;100.00
4586;BME280;2305;50.118;8.952;2024-02-16T10:22:25;100509.78;;;14.66;100.00
4586;BME280;2305;50.118;8.952;2024-02-16T10:24:55;100509.88;;;14.74;100.00
4586;BME280;2305;50.118;8.952;2024-02-16T10:27:23;100507.63;;;14.79;100.00
4586;BME280;2305;50.118;8.952;2024-02-16T10:29:53;100508.47;;;14.79;100.00
4586;BME280;2305;50.118;8.952;2024-02-16T10:32:24;100506.50;;;14.81;100.00
4586;BME280;2305;50.118;8.952;2024-02-16T10:34:53;100511.63;;;14.92;100.00
4586;BME280;2305;50.118;8.952;2024-02-16T10:37:24;100514.38;;;15.00;100.00
4586;BME280;2305;50.118;8.952;2024-02-16T10:39:53;100510.69;;;15.11;100.00
4586;BME280;2305;50.118;8.952;2024-02-16T10:42:26;100507.78;;;15.31;100.00
4586;BME280;2305;50.118;8.952;2024-02-16T10:44:55;100506.25;;;15.64;100.00
4586;BME280;2305;50.118;8.952;2024-02-16T10:47:27;100509.38;;;15.77;100.00
4586;BME280;2305;50.118;8.952;2024-02-16T10:49:58;100516.13;;;15.71;100.00
4586;BME280;2305;50.118;8.952;2024-02-16T10:52:31;100517.47;;;15.75;100.00
4586;BME280;2305;50.118;8.952;2024-02-16T10:55:07;100518.56;;;15.65;100.00
4586;BME280;2305;50.118;8.952;2024-02-16T10:57:39;100523.41;;;15.69;100.00
4586;BME280;2305;50.118;8.952;2024-02-16T11:00:10;100525.91;;;15.71;100.00
4586;BME280;2305;50.118;8.952;2024-02-16T11:02:52;100511.13;;;15.68;100.00
4586;BME280;2305;50.118;8.952;2024-02-16T11:05:33;100517.13;;;15.70;100.00
4586;BME280;2305;50.118;8.952;2024-02-16T11:08:11;100517.19;;;15.78;100.00
4586;BME280;2305;50.118;8.952;2024-02-16T11:10:40;100521.72;;;15.86;100.00
4586;BME280;2305;50.118;8.952;2024-02-16T11:13:11;100516.72;;;16.00;100.00
4586;BME280;2305;50.118;8.952;2024-02-16T11:15:44;100516.28;;;16.13;100.00
4586;BME280;2305;50.118;8.952;2024-02-16T11:18:14;100516.72;;;16.26;100.00
4586;BME280;2305;50.118;8.952;2024-02-16T11:20:43;100521.50;;;16.40;100.00
4586;BME280;2305;50.118;8.952;2024-02-16T11:23:14;100517.25;;;16.55;100.00
4586;BME280;2305;50.118;8.952;2024-02-16T11:25:50;100508.88;;;16.75;100.00
4586;BME280;2305;50.118;8.952;2024-02-16T11:28:20;100511.25;;;16.86;100.00
4586;BME280;2305;50.118;8.952;2024-02-16T11:30:48;100520.78;;;16.97;100.00
4586;BME280;2305;50.118;8.952;2024-02-16T11:33:24;100518.81;;;17.07;100.00
4586;BME280;2305;50.118;8.952;2024-02-16T11:35:55;100516.84;;;17.09;100.00
4586;BME280;2305;50.118;8.952;2024-02-16T11:38:26;100512.19;;;17.11;100.00
4586;BME280;2305;50.118;8.952;2024-02-16T11:40:56;100512.03;;;17.20;100.00
4586;BME280;2305;50.118;8.952;2024-02-16T11:43:24;100516.03;;;17.24;100.00
4586;BME280;2305;50.118;8.952;2024-02-16T11:45:52;100519.84;;;17.22;100.00
4586;BME280;2305;50.118;8.952;2024-02-16T11:48:21;100510.06;;;17.30;100.00
4586;BME280;2305;50.118;8.952;2024-02-16T11:50:59;100518.53;;;17.26;100.00
4586;BME280;2305;50.118;8.952;2024-02-16T11:53:29;100515.22;;;17.24;100.00
4586;BME280;2305;50.118;8.952;2024-02-16T11:55:58;100514.72;;;17.20;100.00
4586;BME280;2305;50.118;8.952;2024-02-16T11:58:29;100518.19;;;17.29;100.00
4586;BME280;2305;50.118;8.952;2024-02-16T12:00:58;100512.47;;;17.49;100.00
4586;BME280;2305;50.118;8.952;2024-02-16T12:03:32;100514.28;;;17.49;100.00
4586;BME280;2305;50.118;8.952;2024-02-16T12:06:03;100513.63;;;17.79;100.00
4586;BME280;2305;50.118;8.952;2024-02-16T12:08:34;100505.66;;;18.03;100.00
4586;BME280;2305;50.118;8.952;2024-02-16T12:11:02;100513.28;;;18.22;100.00
4586;BME280;2305;50.118;8.952;2024-02-16T12:13:36;100514.63;;;18.34;100.00
4586;BME280;2305;50.118;8.952;2024-02-16T12:16:07;100499.47;;;18.26;100.00
4586;BME280;2305;50.118;8.952;2024-02-16T12:18:35;100499.63;;;18.17;100.00
4586;BME280;2305;50.118;8.952;2024-02-16T12:21:06;100507.63;;;17.93;100.00
4586;BME280;2305;50.118;8.952;2024-02-16T12:23:36;100497.34;;;17.74;100.00
4586;BME280;2305;50.118;8.952;2024-02-16T12:26:06;100505.13;;;17.75;100.00
4586;BME280;2305;50.118;8.952;2024-02-16T12:28:34;100511.31;;;17.84;100.00
4586;BME280;2305;50.118;8.952;2024-02-16T12:31:30;100520.31;;;17.75;100.00
4586;BME280;2305;50.118;8.952;2024-02-16T12:34:02;100524.16;;;17.72;100.00
4586;BME280;2305;50.118;8.952;2024-02-16T12:36:36;100525.47;;;17.60;100.00
4586;BME280;2305;50.118;8.952;2024-02-16T12:39:08;100529.47;;;17.56;100.00
4586;BME280;2305;50.118;8.952;2024-02-16T12:41:39;100530.78;;;17.60;100.00
4586;BME280;2305;50.118;8.952;2024-02-16T12:44:12;100534.81;;;17.64;100.00
4586;BME280;2305;50.118;8.952;2024-02-16T12:46:54;100524.00;;;17.66;100.00
4586;BME280;2305;50.118;8.952;2024-02-16T12:49:23;100532.31;;;17.79;100.00
4586;BME280;2305;50.118;8.952;2024-02-16T12:51:55;100531.28;;;17.72;100.00
4586;BME280;2305;50.118;8.952;2024-02-16T12:54:25;100536.97;;;17.69;100.00
4586;BME280;2305;50.118;8.952;2024-02-16T12:56:54;100535.47;;;17.74;100.00
4586;BME280;2305;50.118;8.952;2024-02-16T12:59:22;100536.63;;;17.72;100.00
4586;BME280;2305;50.118;8.952;2024-02-16T13:01:51;100533.00;;;17.89;100.00
4586;BME280;2305;50.118;8.952;2024-02-16T13:04:22;100532.28;;;17.71;100.00
4586;BME280;2305;50.118;8.952;2024-02-16T13:06:51;100527.00;;;17.95;100.00
4586;BME280;2305;50.118;8.952;2024-02-16T13:09:37;100526.78;;;18.28;100.00
4586;BME280;2305;50.118;8.952;2024-02-16T13:12:07;100532.63;;;18.40;100.00
4586;BME280;2305;50.118;8.952;2024-02-16T13:14:41;100528.28;;;18.47;100.00